Oxford, Massachusetts
Current Conditions -  °F | °C
As of 3:54 PM on Thursday 20 Nov 2014 (Local Time) from KORH Reporting Station
Clear Clear  
Wind Chill: 30°   Ceiling: Unl
Heat Index: 37°   Visibility: 10mi
Dew Point: 14°   Wind: 10mph
Humidity: 39%   Direction: 260°W
Pressure: 29.74"   Gusts: 24mph
Location:  42.12°N, 71.86°W
Report Text: KORH 202054Z 26009G21KT 10SM CLR 03/M10 A2974 RMK AO2 SLP083 T00281100 55001
Loading
Personal Weather Stations






























Interactive Weather Map New forecast layout! Learn more

10-Day Weather Forecast

Advertisements
Track Severe Weather on mobile